地図

経路データ

SID SEASON NUMBER BASIN SUBBASIN NAME ISO_TIME NATURE LAT LON WMO_WIND WMO_PRES WMO_AGENCY TRACK_TYPE DIST2LAND LANDFALL IFLAG USA_AGENCY USA_ATCF_ID USA_LAT USA_LON USA_RECORD USA_STATUS USA_WIND USA_PRES USA_SSHS USA_R34_NE USA_R34_SE USA_R34_SW USA_R34_NW USA_R50_NE USA_R50_SE USA_R50_SW USA_R50_NW USA_R64_NE USA_R64_SE USA_R64_SW USA_R64_NW USA_POCI USA_ROCI USA_RMW USA_EYE TOKYO_LAT TOKYO_LON TOKYO_GRADE TOKYO_WIND TOKYO_PRES TOKYO_R50_DIR TOKYO_R50_LONG TOKYO_R50_SHORT TOKYO_R30_DIR TOKYO_R30_LONG TOKYO_R30_SHORT TOKYO_LAND CMA_LAT CMA_LON CMA_CAT CMA_WIND CMA_PRES HKO_LAT HKO_LON HKO_CAT HKO_WIND HKO_PRES NEWDELHI_LAT NEWDELHI_LON NEWDELHI_GRADE NEWDELHI_WIND NEWDELHI_PRES NEWDELHI_CI NEWDELHI_DP NEWDELHI_POCI REUNION_LAT REUNION_LON REUNION_TYPE REUNION_WIND REUNION_PRES REUNION_TNUM REUNION_CI REUNION_RMW REUNION_R34_NE REUNION_R34_SE REUNION_R34_SW REUNION_R34_NW REUNION_R50_NE REUNION_R50_SE REUNION_R50_SW REUNION_R50_NW REUNION_R64_NE REUNION_R64_SE REUNION_R64_SW REUNION_R64_NW BOM_LAT BOM_LON BOM_TYPE BOM_WIND BOM_PRES BOM_TNUM BOM_CI BOM_RMW BOM_R34_NE BOM_R34_SE BOM_R34_SW BOM_R34_NW BOM_R50_NE BOM_R50_SE BOM_R50_SW BOM_R50_NW BOM_R64_NE BOM_R64_SE BOM_R64_SW BOM_R64_NW BOM_ROCI BOM_POCI BOM_EYE BOM_POS_METHOD BOM_PRES_METHOD NADI_LAT NADI_LON NADI_CAT NADI_WIND NADI_PRES WELLINGTON_LAT WELLINGTON_LON WELLINGTON_WIND WELLINGTON_PRES DS824_LAT DS824_LON DS824_STAGE DS824_WIND DS824_PRES TD9636_LAT TD9636_LON TD9636_STAGE TD9636_WIND TD9636_PRES TD9635_LAT TD9635_LON TD9635_WIND TD9635_PRES TD9635_ROCI NEUMANN_LAT NEUMANN_LON NEUMANN_CLASS NEUMANN_WIND NEUMANN_PRES MLC_LAT MLC_LON MLC_CLASS MLC_WIND MLC_PRES USA_GUST BOM_GUST BOM_GUST_PER REUNION_GUST REUNION_GUST_PER USA_SEAHGT USA_SEARAD_NE USA_SEARAD_SE USA_SEARAD_SW USA_SEARAD_NW STORM_SPEED STORM_DIR
1981102N04162 1981 31 WP MM GERALD 1981-04-12 00:00:00 NR 4.00000 161.800 main 1308 1293 __________O___ -1 4.00000 161.800 0 8 291
1981102N04162 1981 31 WP MM GERALD 1981-04-12 03:00:00 NR 4.14584 161.418 main 1293 1290 __________P___ -1 4.14584 161.418 0 8 291
1981102N04162 1981 31 WP MM GERALD 1981-04-12 06:00:00 NR 4.29315 161.040 main 1288 1279 __________P___ -1 4.29315 161.040 0 8 292
1981102N04162 1981 31 WP MM GERALD 1981-04-12 09:00:00 NR 4.44356 160.674 main 1279 1265 __________P___ -1 4.44356 160.674 0 8 293
1981102N04162 1981 31 WP MM GERALD 1981-04-12 12:00:00 NR 4.59872 160.324 main 1266 1252 __________P___ -1 4.59872 160.324 0 7 295
1981102N04162 1981 31 WP MM GERALD 1981-04-12 15:00:00 NR 4.76026 159.996 main 1261 1247 __________P___ -1 4.76026 159.996 0 7 298
1981102N04162 1981 31 WP MM GERALD 1981-04-12 18:00:00 NR 4.92987 159.696 main 1249 1244 __________P___ -1 4.92987 159.696 0 7 302
1981102N04162 1981 31 WP MM GERALD 1981-04-12 21:00:00 NR 5.10922 159.429 main 1247 1247 __________P___ -1 5.10922 159.429 0 6 307
1981102N04162 1981 31 WP MM GERALD 1981-04-13 00:00:00 NR 5.30000 159.200 main 1252 1252 __________O___ -1 5.30000 159.200 0 6 313
1981102N04162 1981 31 WP MM GERALD 1981-04-13 03:00:00 NR 5.50062 159.011 main 1256 1256 __________P___ -1 5.50062 159.011 0 5 318
1981102N04162 1981 31 WP MM GERALD 1981-04-13 06:00:00 NR 5.69627 158.845 main 1260 1260 __________P___ -1 5.69627 158.845 0 5 318
1981102N04162 1981 31 WP MM GERALD 1981-04-13 09:00:00 NR 5.86879 158.682 main 1271 1265 __________P___ -1 5.86879 158.682 0 5 312
1981102N04162 1981 31 WP MM GERALD 1981-04-13 12:00:00 NR 6.00000 158.500 main 1268 1261 __________O___ -1 6.00000 158.500 0 5 298
1981102N04162 1981 31 WP MM GERALD 1981-04-13 15:00:00 NR 6.08031 158.276 main 1264 1246 __________P___ -1 6.08031 158.276 0 5 284
1981102N04162 1981 31 WP MM GERALD 1981-04-13 18:00:00 NR 6.11748 158.030 main 1246 1235 __________P___ -1 6.11748 158.030 0 5 275
1981102N04162 1981 31 WP MM GERALD 1981-04-13 21:00:00 NR 6.12092 157.769 main 1235 1217 __________P___ -1 6.12092 157.769 0 5 268
1981102N04162 1981 31 WP MM GERALD 1981-04-14 00:00:00 NR 6.10000 157.500 main 1217 1206 __________O___ -1 6.10000 157.500 0 5 264
1981102N04162 1981 31 WP MM GERALD 1981-04-14 03:00:00 NR 6.07144 157.257 main 1206 1156 __________P___ -1 6.07144 157.257 0 6 223
1981102N04162 1981 31 WP MM GERALD 1981-04-14 06:00:00 TS 5.67784 157.102 main 1156 1125 __O_______P___ -1 4.30000 157.500 0 19 1005 6.02230 157.002 0 7 214
1981102N04162 1981 31 WP MM GERALD 1981-04-14 09:00:00 TS 5.47303 156.852 main 1125 1093 __P_______P___ -1 4.49503 157.113 0 19 1005 5.96203 156.722 0 6 243
1981102N04162 1981 31 WP MM GERALD 1981-04-14 12:00:00 TS 5.38571 156.529 main 1093 1076 __O_______O___ -1 4.70000 156.700 0 19 1005 5.90000 156.400 0 7 262
1981102N04162 1981 31 WP MM GERALD 1981-04-14 15:00:00 TS 5.37845 156.136 main 1071 1055 __P_______P___ -1 4.91500 156.250 0 19 1005 5.84189 156.022 0 8 277
1981102N04162 1981 31 WP MM GERALD 1981-04-14 18:00:00 TS 5.48223 155.690 main 1060 1041 O_O_______P___ jtwc_wp WP021981 5.80000 155.600 20 -1 5.10000 155.800 0 19 1005 5.78501 155.602 0 9 280
1981102N04162 1981 31 WP MM GERALD 1981-04-14 21:00:00 TS 5.53124 155.253 main 1041 1016 P_P_______P___ WP021981 5.75507 155.150 22 -1 5.21494 155.400 0 19 1005 5.73562 155.156 0 9 272
1981102N04162 1981 31 WP MM GERALD 1981-04-15 00:00:00 TS 5.50833 154.800 1004 tokyo main 1016 997 OOO_______O___ jtwc_wp WP021981 5.70000 154.700 25 -1 5.00000 154.700 2 1004 0 0 0 5.30000 155.000 0 19 1005 5.70000 154.700 1 25 9 269
1981102N04162 1981 31 WP MM GERALD 1981-04-15 03:00:00 TS 5.51461 154.344 main 993 977 PPP_______P___ WP021981 5.63496 154.250 25 -1 5.21006 154.250 2 1002 0 0 5.39995 154.572 0 19 1004 5.66117 154.257 1 26 9 272
1981102N04162 1981 31 WP MM GERALD 1981-04-15 06:00:00 TS 5.53497 153.858 1000 tokyo main 977 970 OOOO______P___ jtwc_wp WP021981 5.60000 153.800 25 -1 5.40000 153.800 2 1000 0 0 0 5.50000 154.100 0 19 1003 5.40000 153.500 TD 25 1000 5.63990 153.807 1 27 10 275
1981102N04162 1981 31 WP MM GERALD 1981-04-15 09:00:00 TS 5.59248 153.367 main 970 958 PPPP______P___ WP021981 5.62747 153.350 27 -1 5.55747 153.350 2 1000 0 0 5.59251 153.557 0 21 1001 5.48009 153.083 TD 25 999 5.64867 153.354 1 28 10 279
1981102N04162 1981 31 WP MM GERALD 1981-04-15 12:00:00 TS 5.68421 152.889 1000 tokyo main 967 960 OOOO______O___ jtwc_wp WP021981 5.70000 152.900 30 -1 5.70000 152.900 2 1000 0 0 0 5.70000 153.000 1 23 1000 5.60000 152.700 TD 25 999 5.70000 152.900 1 30 9 283
1981102N04162 1981 31 WP MM GERALD 1981-04-15 15:00:00 TS 5.80250 152.448 main 967 965 PPPP______P___ WP021981 5.77746 152.450 32 -1 5.84998 152.442 2 999 0 0 5.84249 152.470 1 26 999 5.78492 152.365 TD 27 998 5.75763 152.510 1 33 9 287
1981102N04162 1981 31 WP MM GERALD 1981-04-15 18:00:00 TS 5.95284 152.022 35 998 tokyo main 982 980 OOOO______P___ jtwc_wp WP021981 5.90000 152.000 35 0 6.00000 152.000 3 35 998 0 9 50 50 0 6.00000 152.000 1 29 998 6.00000 152.000 TD 30 997 5.86420 152.111 1 37 9 290
1981102N04162 1981 31 WP MM GERALD 1981-04-15 21:00:00 TS 6.09607 151.636 main 989 988 PPPP______P___ WP021981 6.02481 151.602 40 0 6.11977 151.652 3 37 997 0 9 62 62 6.11974 151.695 1 33 997 6.17733 151.575 TD 32 996 6.03870 151.657 1 41 10 293
1981102N04162 1981 31 WP MM GERALD 1981-04-16 00:00:00 TS 6.32000 151.140 40 996 tokyo main 1008 1008 OOOO______O___ jtwc_wp WP021981 6.30000 151.100 45 0 6.30000 151.200 3 40 996 0 9 75 75 0 6.30000 151.300 2 38 996 6.40000 151.000 TS 35 995 6.30000 151.100 2 45 14 296
1981102N04162 1981 31 WP MM GERALD 1981-04-16 03:00:00 TS 6.70934 150.381 main 1040 1037 PPPP______P___ WP021981 6.88506 150.360 47 0 6.62011 150.460 3 45 993 0 9 112 112 6.61260 150.575 2 43 993 6.72766 150.188 TS 37 992 6.70125 150.323 2 48 18 297
1981102N04162 1981 31 WP MM GERALD 1981-04-16 06:00:00 TS 7.15579 149.510 50 990 tokyo main 1067 1063 OOOO______P___ jtwc_wp WP021981 7.50000 149.500 50 0 7.00000 149.600 4 50 990 0 9 150 150 0 7.00000 149.700 3 48 990 7.10000 149.300 TS 40 990 7.17897 149.452 2 52 19 296
1981102N04162 1981 31 WP MM GERALD 1981-04-16 09:00:00 TS 7.55287 148.671 main 1096 1093 PPPP______P___ WP021981 7.86749 148.635 55 0 7.35743 148.785 4 52 987 0 9 175 175 7.41500 148.835 3 48 989 7.45736 148.520 TS 45 987 7.66704 148.579 2 56 18 295
1981102N04162 1981 31 WP MM GERALD 1981-04-16 12:00:00 TS 7.90000 147.880 55 985 tokyo main 1121 1121 OOOO______O___ jtwc_wp WP021981 8.10000 147.800 60 0 7.70000 148.000 4 55 985 9 40 40 9 200 200 0 7.80000 148.000 3 48 988 7.80000 147.800 STS 50 985 8.10000 147.800 2 60 16 291
1981102N04162 1981 31 WP MM GERALD 1981-04-16 15:00:00 TS 8.15191 147.133 main 1154 1154 PPPP______P___ WP021981 8.25004 147.002 57 0 8.00008 147.210 4 57 982 9 45 45 9 200 200 8.05749 147.217 3 53 985 8.10758 147.060 STS 50 983 8.34437 147.177 2 57 14 290
1981102N04162 1981 31 WP MM GERALD 1981-04-16 18:00:00 TS 8.38686 146.553 60 980 tokyo main 1176 1176 OOOO______P___ jtwc_wp WP021981 8.40000 146.400 55 0 8.30000 146.600 4 60 980 9 50 50 9 200 200 0 8.30000 146.600 3 58 982 8.40000 146.500 STS 50 982 8.53431 146.667 2 55 10 299
1981102N04162 1981 31 WP MM GERALD 1981-04-16 21:00:00 TS 8.65627 146.231 main 1211 1211 PPPP______P___ WP021981 8.65479 146.102 52 0 8.61979 146.310 4 60 982 9 50 50 9 200 200 8.60483 146.202 3 58 983 8.66981 146.267 STS 50 983 8.73212 146.274 2 52 8 323
1981102N04162 1981 31 WP MM GERALD 1981-04-17 00:00:00 TS 9.00000 146.080 60 985 tokyo main 1245 1245 OOOO______O___ jtwc_wp WP021981 9.00000 146.000 50 0 9.00000 146.200 4 60 985 9 50 50 9 200 200 0 9.00000 146.000 3 58 985 9.00000 146.200 STS 50 985 9.00000 146.000 2 50 9 342
1981102N04162 1981 31 WP MM GERALD 1981-04-17 03:00:00 TS 9.46660 145.966 main 1301 1301 PPPP______P___ WP021981 9.41249 145.927 50 0 9.47749 146.077 4 60 987 9 50 50 9 200 200 9.52746 145.905 3 53 987 9.46250 146.092 STS 47 987 9.45307 145.827 2 50 10 351
1981102N04162 1981 31 WP MM GERALD 1981-04-17 06:00:00 TS 9.99542 145.913 60 990 tokyo main 1358 1358 OOOO______P___ jtwc_wp WP021981 9.90000 145.900 50 0 10.0000 146.000 4 60 990 9 50 50 9 200 200 0 10.1000 145.900 3 48 989 10.0000 146.000 TS 45 990 9.97711 145.765 2 50 11 355
1981102N04162 1981 31 WP MM GERALD 1981-04-17 09:00:00 TS 10.5420 145.876 main 1413 1413 PPPP______P___ WP021981 10.4650 145.843 50 0 10.5150 145.957 4 55 990 9 9 175 175 10.6450 145.915 3 48 989 10.5725 145.893 TS 45 990 10.5126 145.770 2 50 11 356
1981102N04162 1981 31 WP MM GERALD 1981-04-17 12:00:00 TS 11.0400 145.840 50 990 tokyo main 1470 1470 OOOO______O___ jtwc_wp WP021981 11.0000 145.800 50 0 11.0000 145.900 4 50 990 0 9 150 150 0 11.1000 145.900 3 48 990 11.1000 145.800 TS 45 990 11.0000 145.800 2 50 9 352
1981102N04162 1981 31 WP MM GERALD 1981-04-17 15:00:00 TS 11.4160 145.756 main 1515 1515 PPPP______P___ WP021981 11.3950 145.792 47 0 11.4450 145.735 4 50 990 0 9 150 150 11.3800 145.743 3 48 990 11.5025 145.735 TS 42 990 11.3574 145.773 2 48 7 348
1981102N04162 1981 31 WP MM GERALD 1981-04-17 18:00:00 TS 11.7120 145.693 50 990 tokyo main 1549 1549 OOOO______P___ jtwc_wp WP021981 11.7000 145.800 45 0 11.8000 145.600 4 50 990 0 9 150 150 0 11.6000 145.600 3 48 990 11.8000 145.700 TS 40 990 11.6599 145.763 2 47 6 353
1981102N04162 1981 31 WP MM GERALD 1981-04-17 21:00:00 TS 11.9610 145.692 main 1582 1582 PPPP______P___ WP021981 11.9575 145.793 45 0 12.0150 145.605 4 47 990 0 9 150 150 11.8925 145.605 3 43 990 12.0075 145.685 TS 40 990 11.9324 145.770 2 46 5 4
1981102N04162 1981 31 WP MM GERALD 1981-04-18 00:00:00 TS 12.2000 145.740 45 990 tokyo main 1605 1604 OOOO______O___ jtwc_wp WP021981 12.2000 145.800 45 0 12.2000 145.700 3 45 990 0 9 150 150 0 12.2000 145.700 2 38 990 12.2000 145.700 TS 40 990 12.2000 145.800 2 45 6 13
1981102N04162 1981 31 WP MM GERALD 1981-04-18 03:00:00 TS 12.4955 145.815 main 1638 1638 PPPP______P___ WP021981 12.4925 145.835 45 0 12.4850 145.835 3 45 990 0 9 150 150 12.5150 145.842 2 38 990 12.4850 145.735 TS 40 990 12.4999 145.825 2 43 6 16
1981102N04162 1981 31 WP MM GERALD 1981-04-18 06:00:00 TS 12.8000 145.915 45 990 tokyo main 1671 1671 OOOO______P___ jtwc_wp WP021981 12.8000 145.900 45 0 12.8000 146.000 3 45 990 0 9 150 150 0 12.8000 146.000 2 38 991 12.8000 145.800 TS 40 991 12.7998 145.875 2 42 6 18
1981102N04162 1981 31 WP MM GERALD 1981-04-18 09:00:00 TS 13.0799 146.009 main 1704 1704 PPPP______P___ WP021981 13.1075 145.978 42 0 13.1075 146.150 3 45 990 0 9 150 150 12.9849 146.078 2 38 991 13.1000 145.878 TS 40 991 13.0999 145.963 2 41 6 21
1981102N04162 1981 31 WP MM GERALD 1981-04-18 12:00:00 TS 13.3600 146.140 45 990 tokyo main 1737 1737 OOOO______O___ jtwc_wp WP021981 13.4000 146.100 40 0 13.4000 146.300 3 45 990 0 9 150 150 0 13.2000 146.200 2 38 991 13.4000 146.000 TS 40 991 13.4000 146.100 2 40 7 31
1981102N04162 1981 31 WP MM GERALD 1981-04-18 15:00:00 TS 13.6528 146.357 main 1770 1770 PPPP______P___ WP021981 13.6425 146.270 40 0 13.6425 146.443 3 45 990 0 9 150 150 13.5776 146.500 2 38 991 13.6850 146.178 TS 40 991 13.7166 146.396 2 38 8 37
1981102N04162 1981 31 WP MM GERALD 1981-04-18 18:00:00 TS 13.9661 146.605 45 990 tokyo main 1803 1803 OOOO______P___ jtwc_wp WP021981 13.9000 146.500 40 0 13.9000 146.600 3 45 990 0 9 150 150 0 14.0000 146.800 2 38 992 14.0000 146.400 TS 40 992 14.0303 146.726 2 37 8 36
1981102N04162 1981 31 WP MM GERALD 1981-04-18 21:00:00 TS 14.3132 146.846 main 1837 1837 PPPP______P___ WP021981 14.2351 146.852 37 0 14.2426 146.830 3 45 991 0 9 150 150 14.3699 146.950 2 38 992 14.4075 146.650 TS 37 992 14.3288 146.993 2 36 8 30
1981102N04162 1981 31 WP MM GERALD 1981-04-19 00:00:00 TS 14.6556 147.022 45 992 tokyo main 1882 1882 OOOO______O___ jtwc_wp WP021981 14.6000 147.100 35 0 14.6000 147.000 3 45 992 0 9 150 150 0 14.7000 147.000 2 38 992 14.8000 146.900 TS 35 993 14.6000 147.100 2 35 7 14
1981102N04162 1981 31 WP MM GERALD 1981-04-19 03:00:00 TS 14.9651 147.007 main 1915 1915 PP_P______P___ WP021981 14.9947 147.078 32 -1 14.9450 146.995 3 45 992 0 9 137 137 2 15.0499 147.085 TS 35 993 14.8660 146.847 2 33 6 344
1981102N04162 1981 31 WP MM GERALD 1981-04-19 06:00:00 TS 15.2247 146.860 45 992 tokyo main 1938 1938 OO_O______P___ jtwc_wp WP021981 15.3000 146.800 30 -1 15.2000 146.900 3 45 992 0 9 125 125 0 15.3000 147.300 TS 35 993 15.0987 146.439 2 32 6 324
1981102N04162 1981 31 WP MM GERALD 1981-04-19 09:00:00 TS 15.4237 146.665 main 1960 1960 PP_P______P___ WP021981 15.4556 146.228 30 -1 15.2950 146.815 3 45 992 0 9 112 112 15.6624 147.605 TS 35 993 15.2818 146.012 2 31 5 315
1981102N04162 1981 31 WP MM GERALD 1981-04-19 12:00:00 TS 15.5500 146.525 45 992 tokyo main 1982 1982 OO_O______O___ jtwc_wp WP021981 15.4000 145.700 30 -1 15.3000 146.700 3 45 992 0 9 100 100 0 16.1000 148.000 TS 35 993 15.4000 145.700 1 30 2 327
1981102N04162 1981 31 WP MM GERALD 1981-04-19 15:00:00 TS 15.5966 146.550 main 1982 1982 PP_P______P___ WP021981 15.0122 145.580 27 -1 15.3075 146.557 3 42 992 0 9 100 100 16.6223 148.455 TS 35 994 15.4445 145.606 1 28 2 69
1981102N04162 1981 31 WP MM GERALD 1981-04-19 18:00:00 TS 15.6068 146.677 40 992 tokyo main 1982 1982 OO_O______P___ jtwc_wp WP021981 14.7000 145.700 25 -1 15.3000 146.400 3 40 992 0 9 100 100 0 17.1000 149.000 TS 35 996 15.4296 145.699 1 27 2 79
1981102N04162 1981 31 WP MM GERALD 1981-04-19 21:00:00 TS 15.6461 146.804 main 1982 1982 PP_P______P___ WP021981 14.8502 145.927 25 -1 15.2999 146.273 3 42 992 0 9 125 125 17.4055 149.628 TS 30 998 15.3749 145.918 1 26 1 263
1981102N04162 1981 31 WP MM GERALD 1981-04-20 00:00:00 TS 15.6000 146.625 45 992 tokyo main 1982 1960 OO_O______O___ jtwc_wp WP021981 15.3000 146.200 25 -1 15.3000 146.100 3 45 992 0 9 150 150 0 17.6000 150.300 TD 25 1000 15.3000 146.200 1 25 10 253
1981102N04162 1981 31 WP MM GERALD 1981-04-20 03:00:00 TS 15.3442 145.774 main 1951 1951 _P____________ WP021981 -1 15.2476 145.815 3 45 993 0 9 150 150 TD 1 11 263
1981102N04162 1981 31 WP MM GERALD 1981-04-20 06:00:00 TS 15.4714 145.500 45 994 tokyo main 1975 1975 _O____________ -1 15.3000 145.500 3 45 994 0 9 150 150 0 1 6 309
1981102N04162 1981 31 WP MM GERALD 1981-04-20 09:00:00 TS 15.7438 145.270 main 1999 1999 _P____________ -1 15.5750 145.205 3 996 0 9 1 7 329
1981102N04162 1981 31 WP MM GERALD 1981-04-20 12:00:00 TS 16.1000 145.100 998 tokyo main 2045 2045 _O____________ -1 16.0000 145.000 2 998 0 0 0 9 343
1981102N04162 1981 31 WP MM GERALD 1981-04-20 15:00:00 TS 16.5537 145.016 main 2090 2049 _P____________ -1 16.5150 144.962 2 999 0 0 9 354
1981102N04162 1981 31 WP MM GERALD 1981-04-20 18:00:00 TS 17.0000 145.000 1000 tokyo main 2049 2019 _O____________ -1 17.0000 145.000 2 1000 0 0 0 7 0
1981102N04162 1981 31 WP MM GERALD 1981-04-20 21:00:00 TS 17.2900 145.003 main 2019 1999 _P____________ -1 17.2650 144.978 2 1002 0 0 6 4
1981102N04162 1981 31 WP MM GERALD 1981-04-21 00:00:00 TS 17.5500 145.050 1004 tokyo main 1993 1963 _O____________ -1 17.5000 145.000 2 1004 0 0 0 6 12
1981102N04162 1981 31 WP MM GERALD 1981-04-21 03:00:00 TS 17.8775 145.131 main 1963 1937 _P____________ -1 17.8625 145.120 2 1004 0 0 7 15
1981102N04162 1981 31 WP MM GERALD 1981-04-21 06:00:00 TS 18.2500 145.250 1004 tokyo main 1928 1899 _O____________ -1 18.3000 145.300 2 1004 0 0 0 8 17
1981102N04162 1981 31 WP MM GERALD 1981-04-21 09:00:00 TS 18.6675 145.385 main 1888 1848 _P____________ -1 18.7925 145.485 2 1004 0 0 9 19
1981102N04162 1981 31 WP MM GERALD 1981-04-21 12:00:00 TS 19.1000 145.550 1004 tokyo main 1851 1811 _O____________ -1 19.3000 145.700 2 1004 0 0 0 9 22
1981102N04162 1981 31 WP MM GERALD 1981-04-21 15:00:00 TS 19.5112 145.739 main 1811 1775 _P____________ -1 19.7650 145.935 2 1004 0 0 9 25
1981102N04162 1981 31 WP MM GERALD 1981-04-21 18:00:00 TS 19.9000 145.950 1004 tokyo main 1778 1750 _O____________ -1 20.2000 146.200 2 1004 0 0 0 8 28
1981102N04162 1981 31 WP MM GERALD 1981-04-21 21:00:00 TS 20.2537 146.168 main 1743 1718 _P____________ -1 20.6150 146.500 2 1006 0 0 9 32
1981102N04162 1981 31 WP MM GERALD 1981-04-22 00:00:00 TS 20.6571 146.457 1008 tokyo main 1711 1677 _O____________ -1 21.0000 146.800 2 1008 0 0 0 10 34
1981102N04162 1981 31 WP MM GERALD 1981-04-22 03:00:00 TS 21.1024 146.772 main 1681 1648 _P____________ -1 21.3648 147.043 2 1009 0 0 11 35
1981102N04162 1981 31 WP MM GERALD 1981-04-22 06:00:00 TS 21.5600 147.140 1010 tokyo main 1642 1623 _O____________ -1 21.7000 147.300 2 1010 0 0 0 12 42
1981102N04162 1981 31 WP MM GERALD 1981-04-22 09:00:00 TS 22.0000 147.628 main 1623 1606 _P____________ -1 22.0000 147.628 2 1010 0 0 11 47
1981102N04162 1981 31 WP MM GERALD 1981-04-22 12:00:00 TS 22.3000 148.000 1010 tokyo main 1611 1596 _O____________ -1 22.3000 148.000 2 1010 0 0 0 9 46
1981102N04162 1981 31 WP MM GERALD 1981-04-22 15:00:00 TS 22.6572 148.363 main 1591 1578 _P____________ -1 22.6572 148.363 2 1010 0 0 10 47
1981102N04162 1981 31 WP MM GERALD 1981-04-22 18:00:00 TS 23.0000 148.800 1010 tokyo main 1583 1579 _O____________ -1 23.0000 148.800 2 1010 0 0 0 11 57
1981102N04162 1981 31 WP MM GERALD 1981-04-22 21:00:00 TS 23.2500 149.363 main 1596 1587 _P____________ -1 23.2500 149.363 2 1010 0 0 12 66
1981102N04162 1981 31 WP MM GERALD 1981-04-23 00:00:00 TS 23.5000 150.000 1010 tokyo main 1600 1595 _O____________ -1 23.5000 150.000 2 1010 0 0 0 13 62
1981102N04162 1981 31 WP MM GERALD 1981-04-23 03:00:00 TS 23.8569 150.612 main 1598 1598 _P____________ -1 23.8569 150.612 2 1010 0 0 14 60
1981102N04162 1981 31 WP MM GERALD 1981-04-23 06:00:00 TS 24.2000 151.300 1010 tokyo main 1613 1613 _O____________ -1 24.2000 151.300 2 1010 0 0 0 15 67
1981102N04162 1981 31 WP MM GERALD 1981-04-23 09:00:00 TS 24.4221 152.098 main 1647 1645 _P____________ -1 24.4221 152.098 2 1011 0 0 16 76
1981102N04162 1981 31 WP MM GERALD 1981-04-23 12:00:00 TS 24.6000 153.000 1012 tokyo main 1691 1691 _O____________ -1 24.6000 153.000 2 1012 0 0 0 18 78
1981102N04162 1981 31 WP MM GERALD 1981-04-23 15:00:00 TS 24.7939 153.979 main 1745 1745 _P____________ -1 24.7939 153.979 2 1012 0 0 19 78
1981102N04162 1981 31 WP MM GERALD 1981-04-23 18:00:00 TS 25.0000 155.000 1012 tokyo main 1799 _O____________ -1 25.0000 155.000 2 1012 0 0 0 19 77

デジタル台風データ・検索

IBTrACS Databaseについて

本データベースは、米国NOAAが公開する1842年以降の世界の熱帯低気圧のベストトラックデータアーカイブInternational Best Track Archive for Climate Stewardship (IBTrACS)を、ウェブで閲覧しやすい形式に変換したものです。

最終更新日:2021-12-01